createdAt,value
2022-08-14T00:02:01.416Z,11.85
2022-08-14T00:04:32.115Z,11.65
2022-08-14T00:07:06.017Z,12.60
2022-08-14T00:09:33.189Z,13.80
2022-08-14T00:12:00.135Z,11.68
2022-08-14T00:14:28.231Z,13.48
2022-08-14T00:16:55.970Z,13.85
2022-08-14T00:19:23.395Z,14.70
2022-08-14T00:21:51.982Z,13.77
2022-08-14T00:24:28.223Z,13.50
2022-08-14T00:26:57.039Z,14.90
2022-08-14T00:29:25.693Z,13.40
2022-08-14T00:31:56.638Z,12.52
2022-08-14T00:34:36.320Z,12.93
2022-08-14T00:37:05.759Z,12.65
2022-08-14T00:39:34.631Z,15.48
2022-08-14T00:42:02.221Z,13.30
2022-08-14T00:44:32.897Z,12.85
2022-08-14T00:47:10.696Z,12.93
2022-08-14T00:49:43.497Z,12.45
2022-08-14T00:52:17.683Z,12.43
2022-08-14T00:54:47.812Z,13.70
2022-08-14T00:57:15.004Z,13.05
2022-08-14T00:59:41.793Z,14.30
2022-08-14T01:02:09.518Z,16.52
2022-08-14T01:04:54.478Z,14.35
2022-08-14T01:07:23.645Z,15.23
2022-08-14T01:09:53.408Z,12.77
2022-08-14T01:12:27.230Z,14.07
2022-08-14T01:14:58.785Z,16.88
2022-08-14T01:17:49.464Z,16.35
2022-08-14T01:20:39.239Z,17.85
2022-08-14T01:23:16.641Z,12.82
2022-08-14T01:25:48.803Z,13.35
2022-08-14T01:28:46.516Z,12.50
2022-08-14T01:31:05.956Z,15.13
2022-08-14T01:33:59.271Z,12.75
2022-08-14T01:36:22.911Z,12.75
2022-08-14T01:38:51.502Z,14.25
2022-08-14T01:41:23.069Z,15.95
2022-08-14T01:44:02.221Z,15.32
2022-08-14T01:46:33.552Z,13.23
2022-08-14T01:49:07.672Z,12.75
2022-08-14T01:51:35.298Z,14.60
2022-08-14T01:54:15.839Z,14.07
2022-08-14T01:56:45.209Z,15.55
2022-08-14T01:59:18.284Z,14.05
2022-08-14T02:01:51.494Z,13.25
2022-08-14T02:04:54.935Z,14.88
2022-08-14T02:07:27.216Z,15.88
2022-08-14T02:10:13.146Z,14.05
2022-08-14T02:12:54.065Z,16.45
2022-08-14T02:15:24.771Z,13.30
2022-08-14T02:17:51.935Z,15.13
2022-08-14T02:20:23.808Z,15.10
2022-08-14T02:22:54.550Z,13.93
2022-08-14T02:25:22.515Z,13.38
2022-08-14T02:28:22.234Z,14.77
2022-08-14T02:30:38.334Z,14.63
2022-08-14T02:33:07.215Z,16.00
2022-08-14T02:35:34.381Z,18.35
2022-08-14T02:38:11.443Z,16.15
2022-08-14T02:40:39.207Z,18.00
2022-08-14T02:43:07.985Z,15.43
2022-08-14T02:45:38.322Z,15.95
2022-08-14T02:49:02.508Z,18.20
2022-08-14T02:51:00.847Z,19.38
2022-08-14T02:53:29.250Z,16.50
2022-08-14T02:56:03.173Z,15.63
2022-08-14T02:58:47.873Z,16.17
2022-08-14T03:01:17.436Z,16.07
2022-08-14T03:03:48.311Z,17.07
2022-08-14T03:06:20.661Z,15.70
2022-08-14T03:09:02.157Z,17.50
2022-08-14T03:11:35.229Z,15.63
2022-08-14T03:14:02.148Z,19.17
2022-08-14T03:16:35.706Z,19.70
2022-08-14T03:19:09.594Z,17.17
2022-08-14T03:21:39.830Z,17.03
2022-08-14T03:24:16.587Z,15.80
2022-08-14T03:26:57.475Z,17.70
2022-08-14T03:29:26.315Z,18.33
2022-08-14T03:31:53.876Z,18.80
2022-08-14T03:34:24.965Z,18.63
2022-08-14T03:37:39.531Z,17.40
2022-08-14T03:39:57.382Z,17.27
2022-08-14T03:42:25.165Z,19.87
2022-08-14T03:45:18.482Z,20.30
2022-08-14T03:47:56.155Z,19.53
2022-08-14T03:50:30.736Z,19.90
2022-08-14T03:53:01.765Z,17.20
2022-08-14T03:55:30.646Z,21.37
2022-08-14T03:57:58.127Z,19.30
2022-08-14T04:00:40.644Z,20.07
2022-08-14T04:03:15.402Z,18.50
2022-08-14T04:05:49.090Z,17.90
2022-08-14T04:08:23.125Z,19.13
2022-08-14T04:10:57.502Z,16.10
2022-08-14T04:13:25.026Z,18.23
2022-08-14T04:15:56.247Z,18.90
2022-08-14T04:18:30.103Z,16.93
2022-08-14T04:20:58.600Z,22.20
2022-08-14T04:23:29.465Z,19.23
2022-08-14T04:26:01.518Z,20.90
2022-08-14T04:29:07.188Z,18.47
2022-08-14T04:31:16.139Z,20.10
2022-08-14T04:33:43.187Z,20.13
2022-08-14T04:36:16.111Z,18.87
2022-08-14T04:39:03.553Z,17.87
2022-08-14T04:41:49.204Z,18.23
2022-08-14T04:44:26.688Z,19.00
2022-08-14T04:47:22.600Z,19.40
2022-08-14T04:49:57.382Z,20.83
2022-08-14T04:52:25.303Z,18.70
2022-08-14T04:54:52.414Z,20.60
2022-08-14T04:57:21.921Z,18.63
2022-08-14T04:59:50.810Z,20.77
2022-08-14T05:02:18.140Z,21.13
2022-08-14T05:04:56.773Z,20.27
2022-08-14T05:07:46.465Z,20.47
2022-08-14T05:10:16.595Z,20.50
2022-08-14T05:13:13.652Z,23.42
2022-08-14T05:15:39.391Z,19.43
2022-08-14T05:18:17.767Z,23.57
2022-08-14T05:22:00.579Z,20.33
2022-08-14T05:23:55.748Z,19.85
2022-08-14T05:26:23.812Z,21.98
2022-08-14T05:28:50.763Z,22.67
2022-08-14T05:31:20.370Z,20.45
2022-08-14T05:33:54.936Z,22.87
2022-08-14T05:36:25.649Z,22.40
2022-08-14T05:38:54.278Z,26.30
2022-08-14T05:41:22.392Z,24.38
2022-08-14T05:43:51.164Z,22.15
2022-08-14T05:46:22.868Z,23.60
2022-08-14T05:48:51.749Z,23.08
2022-08-14T05:51:18.937Z,22.95
2022-08-14T05:54:01.711Z,21.42
2022-08-14T05:56:32.833Z,23.13
2022-08-14T05:59:03.987Z,22.45
2022-08-14T06:01:31.605Z,24.95
2022-08-14T06:04:01.792Z,22.48
2022-08-14T06:06:36.421Z,21.98
2022-08-14T06:09:05.219Z,21.13
2022-08-14T06:11:31.956Z,21.73
2022-08-14T06:13:59.425Z,20.15
2022-08-14T06:16:26.409Z,22.65
2022-08-14T06:18:54.309Z,20.65
2022-08-14T06:21:26.446Z,18.48
2022-08-14T06:23:53.289Z,18.42
2022-08-14T06:26:22.179Z,20.70
2022-08-14T06:28:52.387Z,17.42
2022-08-14T06:31:20.882Z,17.23
2022-08-14T06:35:09.438Z,16.67
2022-08-14T06:36:36.706Z,16.80
2022-08-14T06:39:03.709Z,17.55
2022-08-14T06:41:56.772Z,16.75
2022-08-14T06:44:22.030Z,16.85
2022-08-14T06:46:57.742Z,16.55
2022-08-14T06:49:27.157Z,16.50
2022-08-14T06:51:54.517Z,15.75
2022-08-14T06:54:21.486Z,13.80
2022-08-14T06:56:54.154Z,14.32
2022-08-14T06:59:21.410Z,12.85
2022-08-14T07:02:13.190Z,12.70
2022-08-14T07:04:59.056Z,11.73
2022-08-14T07:07:28.672Z,11.88
2022-08-14T07:09:55.910Z,11.98
2022-08-14T07:12:34.828Z,13.60
2022-08-14T07:15:10.994Z,12.85
2022-08-14T07:17:52.073Z,12.40
2022-08-14T07:20:30.976Z,10.93
2022-08-14T07:23:07.297Z,10.85
2022-08-14T07:25:37.553Z,10.73
2022-08-14T07:28:21.287Z,10.82
2022-08-14T07:30:51.581Z,10.63
2022-08-14T07:33:20.753Z,11.38
2022-08-14T07:35:57.910Z,10.25
2022-08-14T07:38:33.567Z,11.38
2022-08-14T07:41:12.035Z,10.35
2022-08-14T07:43:42.496Z,10.82
2022-08-14T07:46:09.354Z,10.23
2022-08-14T07:48:40.734Z,9.80
2022-08-14T07:51:10.801Z,11.85
2022-08-14T07:53:40.544Z,10.13
2022-08-14T07:56:21.695Z,9.93
2022-08-14T07:58:55.216Z,9.75
2022-08-14T08:01:27.697Z,9.25
2022-08-14T08:04:00.055Z,8.80
2022-08-14T08:06:28.265Z,10.60
2022-08-14T08:09:01.038Z,9.32
2022-08-14T08:11:35.015Z,12.10
2022-08-14T08:14:10.344Z,9.43
2022-08-14T08:16:43.559Z,9.60
2022-08-14T08:19:12.680Z,9.52
2022-08-14T08:21:43.739Z,8.73
2022-08-14T08:24:11.273Z,9.63
2022-08-14T08:26:42.021Z,10.02
2022-08-14T08:29:09.631Z,8.55
2022-08-14T08:31:55.753Z,9.50
2022-08-14T08:34:23.786Z,8.63
2022-08-14T08:36:51.699Z,9.77
2022-08-14T08:39:22.444Z,8.18
2022-08-14T08:41:53.221Z,12.23
2022-08-14T08:44:32.342Z,8.63
2022-08-14T08:47:06.115Z,8.43
2022-08-14T08:49:52.601Z,7.82
2022-08-14T08:52:29.181Z,9.00
2022-08-14T08:54:58.732Z,8.20
2022-08-14T08:57:26.024Z,7.95
2022-08-14T08:59:55.058Z,7.82
2022-08-14T09:02:25.986Z,8.52
2022-08-14T09:05:02.310Z,10.05
2022-08-14T09:07:30.526Z,8.60
2022-08-14T09:10:00.030Z,8.75
2022-08-14T09:12:32.370Z,8.23
2022-08-14T09:15:11.268Z,7.75
2022-08-14T09:17:41.494Z,8.18
2022-08-14T09:20:11.623Z,8.55
2022-08-14T09:22:48.220Z,8.65
2022-08-14T09:25:17.035Z,8.18
2022-08-14T09:27:46.721Z,7.93
2022-08-14T09:30:32.121Z,8.02
2022-08-14T09:33:08.919Z,8.05
2022-08-14T09:36:02.864Z,8.18
2022-08-14T09:38:32.435Z,7.53
2022-08-14T09:41:11.788Z,7.38
2022-08-14T09:44:05.250Z,8.10
2022-08-14T09:46:34.364Z,8.32
2022-08-14T09:49:02.788Z,9.23
2022-08-14T09:51:32.605Z,7.78
2022-08-14T09:54:22.770Z,7.55
2022-08-14T09:56:57.347Z,7.75
2022-08-14T09:59:28.003Z,8.40
2022-08-14T10:01:57.249Z,7.45
2022-08-14T10:04:35.738Z,9.23
2022-08-14T10:07:05.959Z,7.75
2022-08-14T10:09:46.112Z,8.40
2022-08-14T10:12:53.157Z,7.82
2022-08-14T10:15:25.156Z,8.55
2022-08-14T10:18:08.149Z,8.05
2022-08-14T10:20:45.934Z,7.40
2022-08-14T10:23:20.807Z,7.45
2022-08-14T10:25:57.407Z,8.88
2022-08-14T10:29:03.534Z,8.88
2022-08-14T10:31:25.382Z,7.32
2022-08-14T10:34:12.994Z,7.88
2022-08-14T10:36:47.799Z,8.93
2022-08-14T10:39:20.933Z,8.75
2022-08-14T10:41:49.405Z,7.47
2022-08-14T10:44:25.017Z,7.38
2022-08-14T10:47:40.288Z,7.35
2022-08-14T10:49:57.628Z,8.40
2022-08-14T10:52:31.779Z,7.43
2022-08-14T10:55:12.789Z,7.72
2022-08-14T10:57:51.587Z,8.02
2022-08-14T11:00:30.166Z,7.28
2022-08-14T11:03:11.066Z,8.13
2022-08-14T11:05:41.339Z,7.72
2022-08-14T11:08:12.664Z,7.90
2022-08-14T11:10:47.363Z,8.48
2022-08-14T11:13:24.174Z,7.45
2022-08-14T11:15:52.691Z,7.45
2022-08-14T11:18:32.097Z,6.97
2022-08-14T11:21:06.693Z,9.48
2022-08-14T11:23:38.545Z,7.60
2022-08-14T11:26:08.935Z,7.85
2022-08-14T11:28:47.258Z,7.10
2022-08-14T11:31:22.197Z,6.57
2022-08-14T11:33:56.846Z,7.45
2022-08-14T11:36:56.901Z,7.20
2022-08-14T11:39:23.192Z,7.05
2022-08-14T11:42:57.348Z,7.47
2022-08-14T11:44:53.889Z,7.40
2022-08-14T11:47:27.249Z,7.38
2022-08-14T11:50:33.657Z,6.82
2022-08-14T11:53:04.918Z,9.07
2022-08-14T11:55:38.316Z,7.03
2022-08-14T11:58:10.962Z,7.15
2022-08-14T12:00:53.657Z,6.47
2022-08-14T12:03:27.191Z,6.72
2022-08-14T12:06:27.753Z,6.60
2022-08-14T12:08:56.917Z,6.20
2022-08-14T12:11:26.686Z,6.60
2022-08-14T12:13:56.002Z,5.60
2022-08-14T12:16:23.101Z,6.35
2022-08-14T12:18:50.870Z,6.40
2022-08-14T12:21:22.287Z,6.70
2022-08-14T12:24:02.541Z,6.72
2022-08-14T12:26:39.178Z,6.72
2022-08-14T12:29:13.254Z,5.53
2022-08-14T12:31:44.672Z,6.70
2022-08-14T12:34:20.323Z,6.85
2022-08-14T12:36:47.776Z,7.10
2022-08-14T12:39:21.250Z,7.10
2022-08-14T12:42:00.329Z,5.97
2022-08-14T12:44:37.299Z,7.65
2022-08-14T12:47:13.344Z,6.50
2022-08-14T12:49:58.392Z,6.13
2022-08-14T12:52:43.071Z,6.82
2022-08-14T12:55:21.135Z,6.20
2022-08-14T12:57:53.162Z,6.63
2022-08-14T13:00:25.479Z,6.35
2022-08-14T13:02:56.813Z,6.78
2022-08-14T13:05:31.999Z,6.47
2022-08-14T13:08:04.489Z,6.78
2022-08-14T13:10:52.035Z,6.93
2022-08-14T13:13:20.668Z,6.18
2022-08-14T13:15:57.255Z,6.32
2022-08-14T13:18:28.171Z,6.50
2022-08-14T13:21:01.038Z,5.93
2022-08-14T13:23:36.229Z,6.07
2022-08-14T13:26:04.611Z,6.65
2022-08-14T13:28:37.528Z,8.18
2022-08-14T13:31:11.331Z,5.68
2022-08-14T13:33:40.738Z,6.45
2022-08-14T13:36:10.177Z,5.38
2022-08-14T13:38:51.159Z,5.78
2022-08-14T13:41:27.713Z,5.88
2022-08-14T13:44:00.279Z,5.78
2022-08-14T13:46:27.955Z,5.07
2022-08-14T13:48:56.435Z,6.35
2022-08-14T13:51:29.755Z,5.03
2022-08-14T13:54:10.108Z,5.63
2022-08-14T13:56:39.651Z,5.47
2022-08-14T13:59:07.066Z,8.27
2022-08-14T14:01:43.078Z,8.60
2022-08-14T14:04:19.012Z,5.28
2022-08-14T14:06:49.063Z,5.90
2022-08-14T14:09:23.688Z,6.05
2022-08-14T14:11:53.071Z,5.95
2022-08-14T14:14:45.123Z,6.50
2022-08-14T14:17:12.509Z,6.45
2022-08-14T14:19:41.480Z,6.07
2022-08-14T14:22:09.793Z,5.68
2022-08-14T14:24:36.735Z,6.13
2022-08-14T14:27:30.047Z,5.80
2022-08-14T14:29:55.448Z,6.18
2022-08-14T14:32:32.003Z,5.72
2022-08-14T14:35:02.746Z,6.35
2022-08-14T14:37:30.544Z,6.65
2022-08-14T14:40:52.590Z,5.50
2022-08-14T14:42:53.338Z,5.97
2022-08-14T14:45:23.919Z,5.60
2022-08-14T14:47:59.173Z,6.03
2022-08-14T14:50:26.550Z,6.53
2022-08-14T14:53:12.412Z,5.97
2022-08-14T14:55:43.055Z,5.93
2022-08-14T14:58:30.936Z,6.07
2022-08-14T15:01:03.905Z,5.95
2022-08-14T15:03:36.805Z,6.45
2022-08-14T15:06:04.839Z,5.90
2022-08-14T15:08:56.920Z,6.20
2022-08-14T15:11:20.039Z,7.10
2022-08-14T15:13:53.262Z,5.63
2022-08-14T15:16:20.625Z,5.85
2022-08-14T15:18:49.122Z,6.75
2022-08-14T15:21:16.073Z,6.60
2022-08-14T15:23:44.188Z,6.43
2022-08-14T15:26:24.245Z,6.05
2022-08-14T15:29:05.885Z,5.38
2022-08-14T15:31:36.315Z,5.90
2022-08-14T15:34:45.031Z,6.72
2022-08-14T15:37:10.959Z,6.43
2022-08-14T15:39:41.502Z,9.60
2022-08-14T15:42:14.623Z,5.88
2022-08-14T15:44:57.206Z,5.88
2022-08-14T15:47:29.899Z,7.25
2022-08-14T15:49:59.709Z,7.38
2022-08-14T15:52:35.100Z,6.40
2022-08-14T15:55:08.053Z,7.63
2022-08-14T15:57:36.167Z,5.90
2022-08-14T16:00:43.919Z,5.70
2022-08-14T16:03:15.906Z,6.75
2022-08-14T16:05:44.538Z,5.75
2022-08-14T16:08:26.871Z,6.63
2022-08-14T16:10:58.848Z,5.78
2022-08-14T16:13:41.767Z,6.53
2022-08-14T16:16:47.432Z,6.82
2022-08-14T16:18:59.626Z,6.05
2022-08-14T16:21:31.574Z,8.38
2022-08-14T16:24:00.429Z,8.48
2022-08-14T16:26:29.835Z,6.22
2022-08-14T16:29:04.838Z,10.35
2022-08-14T16:31:36.086Z,6.85
2022-08-14T16:34:44.557Z,9.65
2022-08-14T16:36:54.626Z,5.78
2022-08-14T16:39:22.533Z,7.38
2022-08-14T16:41:52.236Z,6.32
2022-08-14T16:44:21.978Z,7.57
2022-08-14T16:47:03.902Z,7.25
2022-08-14T16:50:02.749Z,6.00
2022-08-14T16:52:26.037Z,6.20
2022-08-14T16:55:07.555Z,6.90
2022-08-14T16:57:46.771Z,6.10
2022-08-14T17:00:32.968Z,8.05
2022-08-14T17:03:11.628Z,8.93
2022-08-14T17:05:41.731Z,5.30
2022-08-14T17:08:31.591Z,6.22
2022-08-14T17:11:11.918Z,6.03
2022-08-14T17:13:58.081Z,7.00
2022-08-14T17:16:35.964Z,6.85
2022-08-14T17:19:05.659Z,8.85
2022-08-14T17:21:38.471Z,8.02
2022-08-14T17:24:56.206Z,7.15
2022-08-14T17:26:59.827Z,6.47
2022-08-14T17:29:32.019Z,6.43
2022-08-14T17:32:01.866Z,9.48
2022-08-14T17:34:49.425Z,7.97
2022-08-14T17:37:30.428Z,6.10
2022-08-14T17:40:02.106Z,6.28
2022-08-14T17:42:51.571Z,7.75
2022-08-14T17:45:41.151Z,5.75
2022-08-14T17:49:13.949Z,8.70
2022-08-14T17:51:12.412Z,8.35
2022-08-14T17:53:53.460Z,7.63
2022-08-14T17:56:30.835Z,6.75
2022-08-14T17:59:05.725Z,5.60
2022-08-14T18:01:38.684Z,7.18
2022-08-14T18:04:24.796Z,7.25
2022-08-14T18:07:16.881Z,7.50
2022-08-14T18:09:56.997Z,6.68
2022-08-14T18:12:32.886Z,6.72
2022-08-14T18:15:16.205Z,6.63
2022-08-14T18:17:53.291Z,6.03
2022-08-14T18:21:41.044Z,6.30
2022-08-14T18:23:13.839Z,7.07
2022-08-14T18:25:54.511Z,6.70
2022-08-14T18:28:47.827Z,6.88
2022-08-14T18:31:21.672Z,6.40
2022-08-14T18:33:58.562Z,7.00
2022-08-14T18:36:47.719Z,7.93
2022-08-14T18:40:02.285Z,8.85
2022-08-14T18:42:23.495Z,6.65
2022-08-14T18:44:50.891Z,7.55
2022-08-14T18:47:23.393Z,6.70
2022-08-14T18:49:58.352Z,7.10
2022-08-14T18:52:40.124Z,7.35
2022-08-14T18:55:15.983Z,7.57
2022-08-14T18:57:58.045Z,6.97
2022-08-14T19:00:39.799Z,10.95
2022-08-14T19:03:11.451Z,7.85
2022-08-14T19:05:41.247Z,7.50
2022-08-14T19:08:17.874Z,8.57
2022-08-14T19:10:51.958Z,7.03
2022-08-14T19:13:44.689Z,14.38
2022-08-14T19:16:18.617Z,12.77
2022-08-14T19:19:01.312Z,25.48
2022-08-14T19:21:32.806Z,28.40
2022-08-14T19:24:29.333Z,31.83
2022-08-14T19:27:23.665Z,30.25
2022-08-14T19:30:10.781Z,25.77
2022-08-14T19:32:52.186Z,17.33
2022-08-14T19:35:24.363Z,17.63
2022-08-14T19:37:54.895Z,14.55
2022-08-14T19:40:39.180Z,19.42
2022-08-14T19:43:09.563Z,17.10
2022-08-14T19:45:38.179Z,14.60
2022-08-14T19:48:12.799Z,13.32
2022-08-14T19:50:44.973Z,11.43
2022-08-14T19:53:17.534Z,18.73
2022-08-14T19:55:59.751Z,14.95
2022-08-14T19:58:54.768Z,13.30
2022-08-14T20:01:37.405Z,13.60
2022-08-14T20:04:45.979Z,13.88
2022-08-14T20:07:00.158Z,17.42
2022-08-14T20:11:06.555Z,13.95
2022-08-14T20:12:29.251Z,15.18
2022-08-14T20:15:17.816Z,14.88
2022-08-14T20:17:52.710Z,13.38
2022-08-14T20:20:30.687Z,12.35
2022-08-14T20:23:10.698Z,10.82
2022-08-14T20:25:45.210Z,14.75
2022-08-14T20:28:33.024Z,14.35
2022-08-14T20:31:14.336Z,15.23
2022-08-14T20:34:03.406Z,12.35
2022-08-14T20:36:30.804Z,14.20
2022-08-14T20:39:00.347Z,14.52
2022-08-14T20:41:27.463Z,17.50
2022-08-14T20:44:15.867Z,15.10
2022-08-14T20:46:47.882Z,10.43
2022-08-14T20:49:18.544Z,11.73
2022-08-14T20:51:58.957Z,13.88
2022-08-14T20:54:33.569Z,12.27
2022-08-14T20:57:10.535Z,10.32
2022-08-14T20:59:43.911Z,12.80
2022-08-14T21:02:46.906Z,13.57
2022-08-14T21:05:19.589Z,12.77
2022-08-14T21:07:50.344Z,19.40
2022-08-14T21:10:34.122Z,18.98
2022-08-14T21:13:26.256Z,18.00
2022-08-14T21:15:57.651Z,18.25
2022-08-14T21:18:28.650Z,17.88
2022-08-14T21:20:57.498Z,16.67
2022-08-14T21:23:24.478Z,15.60
2022-08-14T21:25:54.497Z,15.55
2022-08-14T21:28:30.055Z,15.50
2022-08-14T21:31:01.789Z,14.95
2022-08-14T21:33:29.020Z,19.15
2022-08-14T21:35:58.173Z,22.05
2022-08-14T21:38:33.626Z,19.77
2022-08-14T21:41:42.557Z,16.30
2022-08-14T21:44:18.009Z,14.68
2022-08-14T21:46:55.683Z,14.48
2022-08-14T21:49:34.098Z,13.50
2022-08-14T21:52:50.893Z,16.40
2022-08-14T21:54:56.143Z,15.77
2022-08-14T21:57:56.631Z,13.07
2022-08-14T22:00:35.326Z,14.52
2022-08-14T22:03:08.845Z,15.23
2022-08-14T22:05:38.171Z,12.73
2022-08-14T22:08:06.556Z,12.43
2022-08-14T22:10:35.023Z,12.65
2022-08-14T22:13:03.193Z,15.15
2022-08-14T22:15:32.450Z,12.07
2022-08-14T22:18:00.346Z,13.00
2022-08-14T22:20:29.939Z,10.73
2022-08-14T22:22:58.388Z,13.77
2022-08-14T22:25:33.330Z,12.73
2022-08-14T22:28:03.362Z,12.65
2022-08-14T22:30:30.585Z,15.15
2022-08-14T22:32:58.589Z,12.90
2022-08-14T22:35:27.927Z,12.82
2022-08-14T22:38:35.013Z,15.52
2022-08-14T22:41:06.531Z,16.25
2022-08-14T22:43:35.105Z,14.60
2022-08-14T22:46:14.590Z,14.50
2022-08-14T22:48:44.493Z,13.82
2022-08-14T22:51:17.777Z,14.00
2022-08-14T22:53:46.225Z,14.48
2022-08-14T22:56:20.666Z,13.25
2022-08-14T22:58:49.900Z,12.52
2022-08-14T23:01:57.172Z,15.15
2022-08-14T23:04:35.416Z,13.93
2022-08-14T23:07:22.871Z,15.38
2022-08-14T23:10:33.480Z,14.15
2022-08-14T23:12:54.802Z,17.88
2022-08-14T23:15:23.547Z,21.00
2022-08-14T23:17:51.156Z,14.32
2022-08-14T23:20:22.362Z,17.90
2022-08-14T23:22:52.468Z,15.05
2022-08-14T23:25:57.158Z,13.32
2022-08-14T23:28:34.348Z,13.35
2022-08-14T23:31:05.855Z,12.85
2022-08-14T23:33:35.289Z,14.90
2022-08-14T23:36:31.964Z,15.50
2022-08-14T23:38:53.551Z,13.90
2022-08-14T23:41:21.023Z,13.27
2022-08-14T23:43:50.489Z,18.17
2022-08-14T23:46:19.300Z,11.85
2022-08-14T23:48:46.638Z,14.15
2022-08-14T23:51:16.084Z,15.48
2022-08-14T23:53:48.086Z,13.95
2022-08-14T23:56:19.404Z,12.73
2022-08-14T23:58:57.412Z,14.55
